sensor_id;sensor_type;location;lat;lon;timestamp;pressure;altitude;pressure_sealevel;temperature;humidity
29247;BME280;16272;48.188;9.964;2023-05-22T00:01:41;95410.13;;;12.20;74.54
29247;BME280;16272;48.188;9.964;2023-05-22T00:04:07;95413.25;;;12.31;73.92
29247;BME280;16272;48.188;9.964;2023-05-22T00:06:32;95410.47;;;12.25;73.77
29247;BME280;16272;48.188;9.964;2023-05-22T00:08:58;95415.59;;;12.26;73.39
29247;BME280;16272;48.188;9.964;2023-05-22T00:11:25;95412.59;;;12.21;75.06
29247;BME280;16272;48.188;9.964;2023-05-22T00:13:51;95409.84;;;12.46;75.95
29247;BME280;16272;48.188;9.964;2023-05-22T00:16:17;95412.22;;;12.41;74.75
29247;BME280;16272;48.188;9.964;2023-05-22T00:18:42;95411.19;;;12.50;73.23
29247;BME280;16272;48.188;9.964;2023-05-22T00:21:09;95406.88;;;12.41;73.74
29247;BME280;16272;48.188;9.964;2023-05-22T00:23:34;95402.97;;;12.20;74.86
29247;BME280;16272;48.188;9.964;2023-05-22T00:26:00;95409.56;;;12.32;73.80
29247;BME280;16272;48.188;9.964;2023-05-22T00:28:27;95400.31;;;12.20;73.87
29247;BME280;16272;48.188;9.964;2023-05-22T00:30:52;95398.44;;;12.29;73.06
29247;BME280;16272;48.188;9.964;2023-05-22T00:33:17;95394.34;;;12.10;73.81
29247;BME280;16272;48.188;9.964;2023-05-22T00:35:43;95396.66;;;12.13;73.46
29247;BME280;16272;48.188;9.964;2023-05-22T00:38:08;95397.69;;;12.12;72.50
29247;BME280;16272;48.188;9.964;2023-05-22T00:40:34;95398.38;;;11.98;72.79
29247;BME280;16272;48.188;9.964;2023-05-22T00:42:59;95397.38;;;11.82;74.39
29247;BME280;16272;48.188;9.964;2023-05-22T00:45:24;95395.88;;;11.88;73.62
29247;BME280;16272;48.188;9.964;2023-05-22T00:47:51;95393.88;;;11.90;75.88
29247;BME280;16272;48.188;9.964;2023-05-22T00:50:17;95395.38;;;12.01;75.51
29247;BME280;16272;48.188;9.964;2023-05-22T00:52:44;95398.91;;;11.60;77.12
29247;BME280;16272;48.188;9.964;2023-05-22T00:55:11;95402.38;;;11.61;76.84
29247;BME280;16272;48.188;9.964;2023-05-22T00:57:37;95401.72;;;11.26;77.20
29247;BME280;16272;48.188;9.964;2023-05-22T01:00:08;95399.06;;;11.34;76.88
29247;BME280;16272;48.188;9.964;2023-05-22T01:02:37;95407.69;;;11.11;77.22
29247;BME280;16272;48.188;9.964;2023-05-22T01:05:04;95412.19;;;11.19;76.68
29247;BME280;16272;48.188;9.964;2023-05-22T01:07:31;95420.03;;;11.29;76.67
29247;BME280;16272;48.188;9.964;2023-05-22T01:09:57;95415.69;;;11.44;75.13
29247;BME280;16272;48.188;9.964;2023-05-22T01:15:09;95418.00;;;11.06;77.89
29247;BME280;16272;48.188;9.964;2023-05-22T01:17:43;95428.00;;;11.20;77.44
29247;BME280;16272;48.188;9.964;2023-05-22T01:20:27;95422.03;;;11.35;76.29
29247;BME280;16272;48.188;9.964;2023-05-22T01:23:17;95425.66;;;11.26;77.08
29247;BME280;16272;48.188;9.964;2023-05-22T01:28:48;95433.28;;;11.12;76.99
29247;BME280;16272;48.188;9.964;2023-05-22T01:31:21;95429.47;;;11.23;76.88
29247;BME280;16272;48.188;9.964;2023-05-22T01:33:53;95432.81;;;11.25;76.91
29247;BME280;16272;48.188;9.964;2023-05-22T01:36:20;95428.31;;;11.42;76.67
29247;BME280;16272;48.188;9.964;2023-05-22T01:38:49;95429.84;;;11.45;76.66
29247;BME280;16272;48.188;9.964;2023-05-22T01:41:17;95434.47;;;11.51;75.15
29247;BME280;16272;48.188;9.964;2023-05-22T01:43:44;95425.34;;;11.37;76.11
29247;BME280;16272;48.188;9.964;2023-05-22T01:46:09;95427.00;;;11.38;75.96
29247;BME280;16272;48.188;9.964;2023-05-22T01:48:35;95431.63;;;11.19;76.79
29247;BME280;16272;48.188;9.964;2023-05-22T01:51:06;95436.28;;;11.26;76.74
29247;BME280;16272;48.188;9.964;2023-05-22T01:53:46;95433.44;;;11.11;77.14
29247;BME280;16272;48.188;9.964;2023-05-22T01:56:19;95435.94;;;11.04;78.12
29247;BME280;16272;48.188;9.964;2023-05-22T02:01:50;95436.19;;;10.68;80.78
29247;BME280;16272;48.188;9.964;2023-05-22T02:04:18;95435.03;;;10.79;80.74
29247;BME280;16272;48.188;9.964;2023-05-22T02:06:44;95437.03;;;10.85;79.50
29247;BME280;16272;48.188;9.964;2023-05-22T02:09:11;95440.81;;;10.66;80.68
29247;BME280;16272;48.188;9.964;2023-05-22T02:11:38;95438.69;;;10.70;81.31
29247;BME280;16272;48.188;9.964;2023-05-22T02:14:04;95442.56;;;11.00;79.25
29247;BME280;16272;48.188;9.964;2023-05-22T02:16:30;95437.09;;;11.01;78.89
29247;BME280;16272;48.188;9.964;2023-05-22T02:18:59;95441.84;;;10.81;79.70
29247;BME280;16272;48.188;9.964;2023-05-22T02:21:34;95444.84;;;10.87;79.89
29247;BME280;16272;48.188;9.964;2023-05-22T02:24:01;95439.53;;;10.87;79.24
29247;BME280;16272;48.188;9.964;2023-05-22T02:26:26;95441.22;;;10.88;78.67
29247;BME280;16272;48.188;9.964;2023-05-22T02:28:52;95433.38;;;10.78;79.68
29247;BME280;16272;48.188;9.964;2023-05-22T02:31:17;95440.91;;;10.91;79.00
29247;BME280;16272;48.188;9.964;2023-05-22T02:33:43;95436.25;;;10.93;78.80
29247;BME280;16272;48.188;9.964;2023-05-22T02:36:09;95440.19;;;10.80;79.05
29247;BME280;16272;48.188;9.964;2023-05-22T02:38:37;95440.72;;;10.84;79.21
29247;BME280;16272;48.188;9.964;2023-05-22T02:41:02;95446.50;;;10.79;79.13
29247;BME280;16272;48.188;9.964;2023-05-22T02:43:28;95440.00;;;10.74;79.40
29247;BME280;16272;48.188;9.964;2023-05-22T02:45:53;95438.88;;;10.84;79.07
29247;BME280;16272;48.188;9.964;2023-05-22T02:48:19;95441.69;;;10.83;79.07
29247;BME280;16272;48.188;9.964;2023-05-22T02:50:44;95437.91;;;10.85;78.91
29247;BME280;16272;48.188;9.964;2023-05-22T02:53:12;95449.09;;;11.22;78.07
29247;BME280;16272;48.188;9.964;2023-05-22T02:55:38;95450.03;;;11.04;77.50
29247;BME280;16272;48.188;9.964;2023-05-22T02:58:04;95450.53;;;11.00;77.77
29247;BME280;16272;48.188;9.964;2023-05-22T03:00:29;95452.34;;;10.91;77.30
29247;BME280;16272;48.188;9.964;2023-05-22T03:02:55;95447.72;;;11.01;77.53
29247;BME280;16272;48.188;9.964;2023-05-22T03:05:20;95444.59;;;11.22;75.45
29247;BME280;16272;48.188;9.964;2023-05-22T03:07:46;95449.75;;;11.16;76.27
29247;BME280;16272;48.188;9.964;2023-05-22T03:10:11;95457.09;;;10.71;77.33
29247;BME280;16272;48.188;9.964;2023-05-22T03:12:36;95448.88;;;10.91;77.31
29247;BME280;16272;48.188;9.964;2023-05-22T03:15:02;95451.38;;;11.00;76.86
29247;BME280;16272;48.188;9.964;2023-05-22T03:17:28;95450.84;;;10.97;75.54
29247;BME280;16272;48.188;9.964;2023-05-22T03:19:54;95450.22;;;11.03;75.80
29247;BME280;16272;48.188;9.964;2023-05-22T03:22:19;95452.03;;;11.02;74.31
29247;BME280;16272;48.188;9.964;2023-05-22T03:24:45;95458.84;;;11.05;73.86
29247;BME280;16272;48.188;9.964;2023-05-22T03:27:13;95465.81;;;10.98;74.98
29247;BME280;16272;48.188;9.964;2023-05-22T03:29:40;95470.72;;;10.76;75.40
29247;BME280;16272;48.188;9.964;2023-05-22T03:32:06;95469.16;;;10.57;75.79
29247;BME280;16272;48.188;9.964;2023-05-22T03:34:31;95470.59;;;10.43;76.69
29247;BME280;16272;48.188;9.964;2023-05-22T03:36:57;95470.50;;;10.61;76.83
29247;BME280;16272;48.188;9.964;2023-05-22T03:39:22;95469.91;;;10.33;78.95
29247;BME280;16272;48.188;9.964;2023-05-22T03:41:47;95471.47;;;10.52;78.06
29247;BME280;16272;48.188;9.964;2023-05-22T03:44:13;95466.25;;;10.77;77.10
29247;BME280;16272;48.188;9.964;2023-05-22T03:46:38;95470.66;;;11.02;75.32
29247;BME280;16272;48.188;9.964;2023-05-22T03:49:03;95469.44;;;10.97;76.06
29247;BME280;16272;48.188;9.964;2023-05-22T03:51:29;95471.44;;;10.87;76.32
29247;BME280;16272;48.188;9.964;2023-05-22T03:53:55;95469.75;;;10.77;77.85
29247;BME280;16272;48.188;9.964;2023-05-22T03:56:20;95469.78;;;10.85;77.69
29247;BME280;16272;48.188;9.964;2023-05-22T03:58:47;95458.47;;;10.83;76.31
29247;BME280;16272;48.188;9.964;2023-05-22T04:01:14;95464.59;;;10.76;76.71
29247;BME280;16272;48.188;9.964;2023-05-22T04:03:40;95466.09;;;10.78;76.32
29247;BME280;16272;48.188;9.964;2023-05-22T04:06:06;95470.34;;;10.63;78.00
29247;BME280;16272;48.188;9.964;2023-05-22T04:08:31;95478.03;;;10.74;77.71
29247;BME280;16272;48.188;9.964;2023-05-22T04:10:57;95476.56;;;10.80;77.74
29247;BME280;16272;48.188;9.964;2023-05-22T04:13:22;95476.28;;;10.57;79.39
29247;BME280;16272;48.188;9.964;2023-05-22T04:15:47;95481.41;;;10.93;78.39
29247;BME280;16272;48.188;9.964;2023-05-22T04:18:14;95480.06;;;10.89;77.25
29247;BME280;16272;48.188;9.964;2023-05-22T04:20:39;95477.16;;;11.33;76.47
29247;BME280;16272;48.188;9.964;2023-05-22T04:23:05;95475.88;;;12.11;74.17
29247;BME280;16272;48.188;9.964;2023-05-22T04:25:32;95481.75;;;12.46;73.25
29247;BME280;16272;48.188;9.964;2023-05-22T04:27:58;95475.00;;;12.35;72.38
29247;BME280;16272;48.188;9.964;2023-05-22T04:30:27;95488.50;;;11.59;75.89
29247;BME280;16272;48.188;9.964;2023-05-22T04:32:52;95483.34;;;11.83;76.23
29247;BME280;16272;48.188;9.964;2023-05-22T04:35:17;95482.16;;;11.36;77.47
29247;BME280;16272;48.188;9.964;2023-05-22T04:37:43;95486.34;;;11.47;77.25
29247;BME280;16272;48.188;9.964;2023-05-22T04:40:10;95489.19;;;12.03;75.20
29247;BME280;16272;48.188;9.964;2023-05-22T04:42:37;95488.19;;;12.04;76.06
29247;BME280;16272;48.188;9.964;2023-05-22T04:45:04;95493.53;;;12.04;75.36
29247;BME280;16272;48.188;9.964;2023-05-22T04:47:29;95497.16;;;11.86;76.37
29247;BME280;16272;48.188;9.964;2023-05-22T04:49:58;95496.03;;;11.97;76.49
29247;BME280;16272;48.188;9.964;2023-05-22T04:52:24;95497.44;;;12.32;75.49
29247;BME280;16272;48.188;9.964;2023-05-22T04:54:50;95505.50;;;12.00;76.52
29247;BME280;16272;48.188;9.964;2023-05-22T04:57:16;95497.47;;;12.24;75.80
29247;BME280;16272;48.188;9.964;2023-05-22T04:59:42;95494.16;;;12.14;76.01
29247;BME280;16272;48.188;9.964;2023-05-22T05:02:08;95504.97;;;12.12;76.62
29247;BME280;16272;48.188;9.964;2023-05-22T05:04:33;95501.06;;;12.56;75.34
29247;BME280;16272;48.188;9.964;2023-05-22T05:06:58;95494.91;;;12.47;76.08
29247;BME280;16272;48.188;9.964;2023-05-22T05:09:25;95493.59;;;12.52;76.46
29247;BME280;16272;48.188;9.964;2023-05-22T05:11:51;95493.03;;;13.04;73.67
29247;BME280;16272;48.188;9.964;2023-05-22T05:14:16;95497.22;;;13.30;73.21
29247;BME280;16272;48.188;9.964;2023-05-22T05:16:42;95497.88;;;13.63;72.58
29247;BME280;16272;48.188;9.964;2023-05-22T05:19:07;95495.97;;;13.72;71.81
29247;BME280;16272;48.188;9.964;2023-05-22T05:21:33;95495.97;;;13.72;71.47
29247;BME280;16272;48.188;9.964;2023-05-22T05:23:58;95492.84;;;14.06;70.55
29247;BME280;16272;48.188;9.964;2023-05-22T05:26:23;95500.56;;;14.01;71.70
29247;BME280;16272;48.188;9.964;2023-05-22T05:28:51;95495.94;;;13.95;72.29
29247;BME280;16272;48.188;9.964;2023-05-22T05:31:18;95503.06;;;14.03;73.07
29247;BME280;16272;48.188;9.964;2023-05-22T05:33:43;95495.81;;;14.26;73.05
29247;BME280;16272;48.188;9.964;2023-05-22T05:36:09;95504.50;;;14.13;73.61
29247;BME280;16272;48.188;9.964;2023-05-22T05:38:34;95500.47;;;14.47;73.40
29247;BME280;16272;48.188;9.964;2023-05-22T05:40:59;95501.88;;;14.58;71.81
29247;BME280;16272;48.188;9.964;2023-05-22T05:43:25;95497.34;;;14.59;73.41
29247;BME280;16272;48.188;9.964;2023-05-22T05:45:50;95489.69;;;14.56;74.75
29247;BME280;16272;48.188;9.964;2023-05-22T05:48:16;95483.47;;;14.63;75.77
29247;BME280;16272;48.188;9.964;2023-05-22T05:50:41;95483.63;;;14.77;75.25
29247;BME280;16272;48.188;9.964;2023-05-22T05:53:07;95486.53;;;15.27;74.08
29247;BME280;16272;48.188;9.964;2023-05-22T05:55:32;95488.78;;;14.93;74.92
29247;BME280;16272;48.188;9.964;2023-05-22T05:57:58;95486.72;;;15.25;74.87
29247;BME280;16272;48.188;9.964;2023-05-22T06:00:23;95491.91;;;15.48;74.01
29247;BME280;16272;48.188;9.964;2023-05-22T06:02:49;95489.19;;;15.27;74.32
29247;BME280;16272;48.188;9.964;2023-05-22T06:05:14;95496.03;;;15.51;75.03
29247;BME280;16272;48.188;9.964;2023-05-22T06:07:41;95491.41;;;16.03;74.30
29247;BME280;16272;48.188;9.964;2023-05-22T06:10:09;95492.66;;;16.07;74.58
29247;BME280;16272;48.188;9.964;2023-05-22T06:12:35;95489.13;;;16.56;72.51
29247;BME280;16272;48.188;9.964;2023-05-22T06:15:01;95494.81;;;16.75;71.76
29247;BME280;16272;48.188;9.964;2023-05-22T06:17:28;95504.81;;;16.59;72.37
29247;BME280;16272;48.188;9.964;2023-05-22T06:19:53;95496.78;;;16.87;71.06
29247;BME280;16272;48.188;9.964;2023-05-22T06:22:18;95503.28;;;17.20;69.96
29247;BME280;16272;48.188;9.964;2023-05-22T06:24:43;95495.41;;;17.73;69.49
29247;BME280;16272;48.188;9.964;2023-05-22T06:27:09;95496.63;;;17.71;69.88
29247;BME280;16272;48.188;9.964;2023-05-22T06:29:34;95496.13;;;18.15;68.15
29247;BME280;16272;48.188;9.964;2023-05-22T06:31:59;95500.44;;;18.23;66.21
29247;BME280;16272;48.188;9.964;2023-05-22T06:34:25;95501.28;;;18.37;68.30
29247;BME280;16272;48.188;9.964;2023-05-22T06:36:51;95485.22;;;19.09;64.88
29247;BME280;16272;48.188;9.964;2023-05-22T06:39:17;95486.75;;;18.85;66.58
29247;BME280;16272;48.188;9.964;2023-05-22T06:41:43;95476.16;;;18.97;65.01
29247;BME280;16272;48.188;9.964;2023-05-22T06:44:08;95487.63;;;19.31;63.68
29247;BME280;16272;48.188;9.964;2023-05-22T06:46:34;95481.84;;;19.65;65.05
29247;BME280;16272;48.188;9.964;2023-05-22T06:48:59;95483.03;;;19.83;62.67
29247;BME280;16272;48.188;9.964;2023-05-22T06:51:25;95477.47;;;19.78;62.58
29247;BME280;16272;48.188;9.964;2023-05-22T06:53:50;95480.28;;;20.15;61.71
29247;BME280;16272;48.188;9.964;2023-05-22T06:56:17;95486.66;;;19.95;62.56
29247;BME280;16272;48.188;9.964;2023-05-22T06:58:42;95478.66;;;20.14;60.78
29247;BME280;16272;48.188;9.964;2023-05-22T07:01:07;95484.81;;;20.21;63.09
29247;BME280;16272;48.188;9.964;2023-05-22T07:03:33;95479.38;;;20.02;60.47
29247;BME280;16272;48.188;9.964;2023-05-22T07:05:59;95483.75;;;19.97;60.21
29247;BME280;16272;48.188;9.964;2023-05-22T07:08:26;95481.25;;;20.27;58.45
29247;BME280;16272;48.188;9.964;2023-05-22T07:10:51;95487.84;;;20.06;58.90
29247;BME280;16272;48.188;9.964;2023-05-22T07:13:17;95486.44;;;20.72;61.04
29247;BME280;16272;48.188;9.964;2023-05-22T07:15:42;95487.78;;;20.13;60.24
29247;BME280;16272;48.188;9.964;2023-05-22T07:18:10;95485.25;;;20.18;58.05
29247;BME280;16272;48.188;9.964;2023-05-22T07:20:36;95493.06;;;20.77;57.93
29247;BME280;16272;48.188;9.964;2023-05-22T07:23:02;95489.88;;;20.11;59.29
29247;BME280;16272;48.188;9.964;2023-05-22T07:25:27;95491.06;;;20.15;61.41
29247;BME280;16272;48.188;9.964;2023-05-22T07:27:53;95483.91;;;20.52;59.00
29247;BME280;16272;48.188;9.964;2023-05-22T07:30:20;95488.94;;;20.49;59.45
29247;BME280;16272;48.188;9.964;2023-05-22T07:32:45;95486.19;;;20.55;57.59
29247;BME280;16272;48.188;9.964;2023-05-22T07:35:11;95493.72;;;20.72;58.55
29247;BME280;16272;48.188;9.964;2023-05-22T07:37:40;95486.34;;;20.86;58.25
29247;BME280;16272;48.188;9.964;2023-05-22T07:40:06;95489.84;;;20.86;61.46
29247;BME280;16272;48.188;9.964;2023-05-22T07:42:32;95491.03;;;20.47;60.06
29247;BME280;16272;48.188;9.964;2023-05-22T07:44:57;95491.91;;;20.66;59.79
29247;BME280;16272;48.188;9.964;2023-05-22T07:47:23;95490.38;;;20.77;59.15
29247;BME280;16272;48.188;9.964;2023-05-22T07:49:48;95485.56;;;21.34;58.39
29247;BME280;16272;48.188;9.964;2023-05-22T07:52:14;95487.00;;;21.55;56.42
29247;BME280;16272;48.188;9.964;2023-05-22T07:54:39;95485.94;;;21.56;56.57
29247;BME280;16272;48.188;9.964;2023-05-22T07:57:11;95482.34;;;21.07;56.53
29247;BME280;16272;48.188;9.964;2023-05-22T07:59:36;95493.22;;;20.56;59.20
29247;BME280;16272;48.188;9.964;2023-05-22T08:02:02;95493.34;;;20.68;58.14
29247;BME280;16272;48.188;9.964;2023-05-22T08:04:27;95495.28;;;20.61;57.52
29247;BME280;16272;48.188;9.964;2023-05-22T08:06:54;95482.81;;;21.22;58.28
29247;BME280;16272;48.188;9.964;2023-05-22T08:09:19;95486.41;;;21.16;56.85
29247;BME280;16272;48.188;9.964;2023-05-22T08:11:45;95485.59;;;21.16;58.42
29247;BME280;16272;48.188;9.964;2023-05-22T08:14:17;95486.91;;;21.43;59.22
29247;BME280;16272;48.188;9.964;2023-05-22T08:16:42;95485.03;;;21.44;57.36
29247;BME280;16272;48.188;9.964;2023-05-22T08:19:07;95484.22;;;22.04;54.86
29247;BME280;16272;48.188;9.964;2023-05-22T08:21:33;95487.44;;;22.25;56.06
29247;BME280;16272;48.188;9.964;2023-05-22T08:23:59;95485.97;;;22.41;56.38
29247;BME280;16272;48.188;9.964;2023-05-22T08:26:25;95490.41;;;22.35;55.60
29247;BME280;16272;48.188;9.964;2023-05-22T08:28:50;95487.72;;;22.47;56.31
29247;BME280;16272;48.188;9.964;2023-05-22T08:31:17;95480.56;;;22.76;55.84
29247;BME280;16272;48.188;9.964;2023-05-22T08:33:43;95477.50;;;22.84;55.01
29247;BME280;16272;48.188;9.964;2023-05-22T08:36:08;95473.84;;;23.14;55.88
29247;BME280;16272;48.188;9.964;2023-05-22T08:38:34;95471.34;;;23.01;52.50
29247;BME280;16272;48.188;9.964;2023-05-22T08:40:59;95470.78;;;23.80;50.71
29247;BME280;16272;48.188;9.964;2023-05-22T08:43:26;95471.56;;;23.63;54.53
29247;BME280;16272;48.188;9.964;2023-05-22T08:46:02;95463.38;;;23.75;50.83
29247;BME280;16272;48.188;9.964;2023-05-22T08:48:31;95469.91;;;23.62;52.83
29247;BME280;16272;48.188;9.964;2023-05-22T08:51:01;95461.34;;;24.62;52.37
29247;BME280;16272;48.188;9.964;2023-05-22T08:53:28;95454.06;;;25.46;49.12
29247;BME280;16272;48.188;9.964;2023-05-22T08:55:55;95456.56;;;24.52;47.75
29247;BME280;16272;48.188;9.964;2023-05-22T08:58:21;95458.59;;;25.18;48.49
29247;BME280;16272;48.188;9.964;2023-05-22T09:00:46;95458.44;;;24.52;47.12
29247;BME280;16272;48.188;9.964;2023-05-22T09:03:13;95450.00;;;25.26;50.31
29247;BME280;16272;48.188;9.964;2023-05-22T09:05:39;95448.38;;;25.25;49.64
29247;BME280;16272;48.188;9.964;2023-05-22T09:08:06;95452.34;;;25.62;48.96
29247;BME280;16272;48.188;9.964;2023-05-22T09:10:35;95450.41;;;26.12;48.94
29247;BME280;16272;48.188;9.964;2023-05-22T09:13:04;95451.00;;;25.92;47.97
29247;BME280;16272;48.188;9.964;2023-05-22T09:15:32;95451.66;;;25.49;46.88
29247;BME280;16272;48.188;9.964;2023-05-22T09:17:58;95446.00;;;25.29;49.27
29247;BME280;16272;48.188;9.964;2023-05-22T09:20:24;95443.81;;;25.80;49.43
29247;BME280;16272;48.188;9.964;2023-05-22T09:22:50;95445.06;;;25.95;49.56
29247;BME280;16272;48.188;9.964;2023-05-22T09:25:19;95454.50;;;25.60;49.40
29247;BME280;16272;48.188;9.964;2023-05-22T09:27:46;95447.34;;;26.03;48.77
29247;BME280;16272;48.188;9.964;2023-05-22T09:30:18;95439.56;;;27.45;46.30
29247;BME280;16272;48.188;9.964;2023-05-22T09:32:45;95439.81;;;26.85;47.91
29247;BME280;16272;48.188;9.964;2023-05-22T09:35:12;95434.34;;;26.80;49.01
29247;BME280;16272;48.188;9.964;2023-05-22T09:37:39;95437.25;;;27.84;43.71
29247;BME280;16272;48.188;9.964;2023-05-22T09:40:11;95440.38;;;27.35;44.84
29247;BME280;16272;48.188;9.964;2023-05-22T09:42:43;95438.03;;;27.69;41.08
29247;BME280;16272;48.188;9.964;2023-05-22T09:45:11;95440.09;;;26.89;45.01
29247;BME280;16272;48.188;9.964;2023-05-22T09:47:37;95437.06;;;27.33;43.02
29247;BME280;16272;48.188;9.964;2023-05-22T09:50:08;95440.28;;;27.25;43.58
29247;BME280;16272;48.188;9.964;2023-05-22T09:52:36;95435.28;;;27.64;43.22
29247;BME280;16272;48.188;9.964;2023-05-22T09:55:06;95432.25;;;27.61;41.93
29247;BME280;16272;48.188;9.964;2023-05-22T09:57:40;95432.66;;;28.26;41.88
29247;BME280;16272;48.188;9.964;2023-05-22T10:00:07;95432.66;;;28.88;41.59
29247;BME280;16272;48.188;9.964;2023-05-22T10:02:37;95438.59;;;27.87;41.41
29247;BME280;16272;48.188;9.964;2023-05-22T10:05:05;95431.28;;;28.18;43.82
29247;BME280;16272;48.188;9.964;2023-05-22T10:07:36;95427.22;;;28.47;39.60
29247;BME280;16272;48.188;9.964;2023-05-22T10:10:08;95431.56;;;28.37;42.88
29247;BME280;16272;48.188;9.964;2023-05-22T10:12:44;95423.91;;;27.93;41.84
29247;BME280;16272;48.188;9.964;2023-05-22T10:15:12;95423.09;;;28.49;37.44
29247;BME280;16272;48.188;9.964;2023-05-22T10:17:38;95429.91;;;28.05;39.95
29247;BME280;16272;48.188;9.964;2023-05-22T10:20:07;95422.56;;;28.37;39.73
29247;BME280;16272;48.188;9.964;2023-05-22T10:22:36;95424.94;;;27.77;38.36
29247;BME280;16272;48.188;9.964;2023-05-22T10:25:03;95423.94;;;28.24;40.40
29247;BME280;16272;48.188;9.964;2023-05-22T10:27:28;95425.84;;;28.44;36.64
29247;BME280;16272;48.188;9.964;2023-05-22T10:30:08;95423.63;;;28.10;40.70
29247;BME280;16272;48.188;9.964;2023-05-22T10:33:40;95418.44;;;28.03;39.49
29247;BME280;16272;48.188;9.964;2023-05-22T10:35:45;95411.38;;;28.44;37.77
29247;BME280;16272;48.188;9.964;2023-05-22T10:38:31;95411.91;;;28.76;37.58
29247;BME280;16272;48.188;9.964;2023-05-22T10:41:04;95409.16;;;28.76;37.08
29247;BME280;16272;48.188;9.964;2023-05-22T10:43:31;95402.31;;;28.79;38.67
29247;BME280;16272;48.188;9.964;2023-05-22T10:46:04;95409.00;;;29.28;38.38
29247;BME280;16272;48.188;9.964;2023-05-22T10:48:51;95407.19;;;28.98;37.05
29247;BME280;16272;48.188;9.964;2023-05-22T10:51:18;95404.53;;;28.41;37.27
29247;BME280;16272;48.188;9.964;2023-05-22T10:53:58;95405.84;;;28.90;38.61
29247;BME280;16272;48.188;9.964;2023-05-22T10:56:32;95400.84;;;29.12;36.98
29247;BME280;16272;48.188;9.964;2023-05-22T10:59:03;95397.78;;;29.29;35.73
29247;BME280;16272;48.188;9.964;2023-05-22T11:01:32;95397.59;;;29.05;38.46
29247;BME280;16272;48.188;9.964;2023-05-22T11:06:34;95388.41;;;28.50;34.90
29247;BME280;16272;48.188;9.964;2023-05-22T11:11:41;95390.91;;;29.42;36.99
29247;BME280;16272;48.188;9.964;2023-05-22T11:14:10;95381.72;;;29.18;38.97
29247;BME280;16272;48.188;9.964;2023-05-22T11:16:58;95384.41;;;29.78;35.86
29247;BME280;16272;48.188;9.964;2023-05-22T11:19:24;95380.50;;;30.23;33.83
29247;BME280;16272;48.188;9.964;2023-05-22T11:21:51;95381.97;;;29.16;34.31
29247;BME280;16272;48.188;9.964;2023-05-22T11:24:17;95384.50;;;29.62;40.25
29247;BME280;16272;48.188;9.964;2023-05-22T11:26:42;95378.09;;;29.77;33.21
29247;BME280;16272;48.188;9.964;2023-05-22T11:29:08;95379.66;;;30.28;36.16
29247;BME280;16272;48.188;9.964;2023-05-22T11:31:35;95377.31;;;29.17;32.37
29247;BME280;16272;48.188;9.964;2023-05-22T11:34:03;95370.00;;;29.62;37.26
29247;BME280;16272;48.188;9.964;2023-05-22T11:36:28;95366.09;;;29.73;36.96
29247;BME280;16272;48.188;9.964;2023-05-22T11:38:59;95366.47;;;29.56;35.06
29247;BME280;16272;48.188;9.964;2023-05-22T11:41:33;95360.50;;;29.94;35.16
29247;BME280;16272;48.188;9.964;2023-05-22T11:43:59;95361.56;;;29.98;34.21
29247;BME280;16272;48.188;9.964;2023-05-22T11:46:25;95359.22;;;29.81;32.38
29247;BME280;16272;48.188;9.964;2023-05-22T11:48:51;95363.34;;;29.78;33.19
29247;BME280;16272;48.188;9.964;2023-05-22T11:51:19;95358.56;;;29.49;33.11
29247;BME280;16272;48.188;9.964;2023-05-22T11:53:45;95356.03;;;29.03;34.38
29247;BME280;16272;48.188;9.964;2023-05-22T11:56:11;95353.50;;;29.72;32.46
29247;BME280;16272;48.188;9.964;2023-05-22T11:58:37;95355.44;;;29.22;29.09
29247;BME280;16272;48.188;9.964;2023-05-22T12:01:03;95343.41;;;29.23;29.38
29247;BME280;16272;48.188;9.964;2023-05-22T12:03:29;95343.34;;;30.17;29.62
29247;BME280;16272;48.188;9.964;2023-05-22T12:05:55;95344.69;;;29.41;29.12
29247;BME280;16272;48.188;9.964;2023-05-22T12:08:22;95328.78;;;30.51;28.67
29247;BME280;16272;48.188;9.964;2023-05-22T12:10:49;95343.97;;;30.04;30.90
29247;BME280;16272;48.188;9.964;2023-05-22T12:13:22;95339.47;;;30.18;27.05
29247;BME280;16272;48.188;9.964;2023-05-22T12:15:48;95332.41;;;30.12;24.68
29247;BME280;16272;48.188;9.964;2023-05-22T12:18:13;95338.13;;;29.86;23.32
29247;BME280;16272;48.188;9.964;2023-05-22T12:20:41;95344.88;;;30.29;25.80
29247;BME280;16272;48.188;9.964;2023-05-22T12:23:26;95341.13;;;29.85;26.90
29247;BME280;16272;48.188;9.964;2023-05-22T12:26:03;95334.56;;;30.15;25.23
29247;BME280;16272;48.188;9.964;2023-05-22T12:28:30;95334.09;;;29.29;25.97
29247;BME280;16272;48.188;9.964;2023-05-22T12:30:57;95331.38;;;30.08;30.63
29247;BME280;16272;48.188;9.964;2023-05-22T12:33:28;95338.84;;;29.03;31.74
29247;BME280;16272;48.188;9.964;2023-05-22T12:35:57;95337.59;;;28.64;26.95
29247;BME280;16272;48.188;9.964;2023-05-22T12:38:29;95335.13;;;28.52;31.70
29247;BME280;16272;48.188;9.964;2023-05-22T12:40:55;95339.22;;;28.50;27.94
29247;BME280;16272;48.188;9.964;2023-05-22T12:43:23;95334.88;;;28.49;29.06
29247;BME280;16272;48.188;9.964;2023-05-22T12:45:49;95330.56;;;27.86;30.30
29247;BME280;16272;48.188;9.964;2023-05-22T12:48:15;95326.38;;;28.66;34.35
29247;BME280;16272;48.188;9.964;2023-05-22T12:50:42;95327.63;;;28.94;30.59
29247;BME280;16272;48.188;9.964;2023-05-22T12:53:07;95328.31;;;28.50;27.10
29247;BME280;16272;48.188;9.964;2023-05-22T12:55:33;95321.59;;;29.07;28.56
29247;BME280;16272;48.188;9.964;2023-05-22T12:57:59;95329.66;;;29.83;29.46
29247;BME280;16272;48.188;9.964;2023-05-22T13:00:24;95327.28;;;29.66;31.43
29247;BME280;16272;48.188;9.964;2023-05-22T13:02:50;95327.91;;;29.52;29.46
29247;BME280;16272;48.188;9.964;2023-05-22T13:05:15;95325.94;;;29.63;28.00
29247;BME280;16272;48.188;9.964;2023-05-22T13:07:41;95326.63;;;28.69;29.35
29247;BME280;16272;48.188;9.964;2023-05-22T13:10:07;95330.22;;;29.30;30.37
29247;BME280;16272;48.188;9.964;2023-05-22T13:12:32;95321.81;;;28.10;29.94
29247;BME280;16272;48.188;9.964;2023-05-22T13:14:58;95329.97;;;27.53;35.31